D/T METAR WX W/DIR W/SPE G/SPE TEMP DEWP
20/06/19 15:50 EGNR 201450Z 36007KT 9999 SCT018 SCT040 16/10 Q1012 N (360°) 8.1mph 16°C 10°C
20/06/19 15:20 EGNR 201420Z 32009KT 9999 -RA SCT015 BKN040 15/10 Q1012 -RA NW (320°) 10.4mph 15°C 10°C
20/06/19 14:50 EGNR 201350Z 33008KT 9999 -RA SCT015 SCT030 14/09 Q1012 -RA NNW (330°) 9.2mph 14°C 9°C
20/06/19 14:20 EGNR 201320Z 33008KT 9999 FEW018 SCT030 14/09 Q1012 NNW (330°) 9.2mph 14°C 9°C
20/06/19 13:50 EGNR 201250Z 34006KT 300V030 9999 FEW018 SCT030 15/09 Q1012 NNW (340°) 6.9mph 15°C 9°C
20/06/19 13:20 EGNR 201220Z 33007KT 300V360 9999 VCSH FEW018 SCT030 15/09 Q1012 VCSH NNW (330°) 8.1mph 15°C 9°C
20/06/19 12:50 EGNR 201150Z 35006KT 9999 SCT020 SCT029 14/09 Q1012 N (350°) 6.9mph 14°C 9°C
20/06/19 12:20 EGNR 201120Z 33008KT 310V010 9999 SCT020 BKN040 15/10 Q1012 NNW (330°) 9.2mph 15°C 10°C
20/06/19 11:50 EGNR 201050Z 31006KT 250V010 9999 SCT020 BKN040 15/09 Q1012 NW (310°) 6.9mph 15°C 9°C
20/06/19 11:20 EGNR 201020Z 29005KT 9999 VCSH SCT020 BKN040 13/10 Q1012 VCSH WNW (290°) 5.8mph 13°C 10°C
20/06/19 10:50 EGNR 200950Z 30007KT 250V340 9999 VCSH SCT020 SCT040 15/09 Q1011 VCSH WNW (300°) 8.1mph 15°C 9°C
20/06/19 10:20 EGNR 200920Z 30008KT 260V340 9999 SCT020 BKN035 14/09 Q1011 WNW (300°) 9.2mph 14°C 9°C
20/06/19 09:50 EGNR 200850Z 32009KT 9999 SCT020 BKN035 13/09 Q1011 NW (320°) 10.4mph 13°C 9°C
20/06/19 09:20 EGNR 200820Z VRB04KT 9999 SCT020 BKN035 13/11 Q1011 N (0°) 4.6mph 13°C 11°C
20/06/19 08:50 EGNR 200750Z 29005KT 9999 -RA FEW018 BKN025 12/10 Q1011 -RA WNW (290°) 5.8mph 12°C 10°C
20/06/19 08:20 EGNR 200720Z 31005KT 270V340 9999 -RA SCT018 BKN022 11/09 Q1010 -RA NW (310°) 5.8mph 11°C 9°C
20/06/19 07:50 EGNR 200650Z VRB02KT 9999 VCSH SCT018 BKN022 14/09 Q1010 VCSH N (0°) 2.3mph 14°C 9°C
20/06/19 07:20 EGNR 200620Z 22004KT 9999 FEW018 SCT025 14/09 Q1010 SW (220°) 4.6mph 14°C 9°C
20/06/19 06:50 EGNR 200550Z VRB01KT 9999 FEW018 SCT025 13/10 Q1010 N (0°) 1.2mph 13°C 10°C
20/06/19 06:20 EGNR 200520Z 24003KT 9999 FEW018 SCT025 12/10 Q1010 WSW (240°) 3.5mph 12°C 10°C
19/06/19 20:50 EGNR 191950Z 33005KT 9999 FEW036 BKN045 16/07 Q1009 NNW (330°) 5.8mph 16°C 7°C
19/06/19 20:20 EGNR 191920Z 02003KT 9999 FEW036 SCT045 16/07 Q1008 NNE (20°) 3.5mph 16°C 7°C
19/06/19 19:50 EGNR 191850Z 36005KT 9999 FEW036 SCT045 16/07 Q1008 N (360°) 5.8mph 16°C 7°C
19/06/19 19:20 EGNR 191820Z 34005KT 9999 FEW036 18/08 Q1008 NNW (340°) 5.8mph 18°C 8°C
19/06/19 18:50 EGNR 191750Z 01005KT 9999 FEW036 SCT048 18/08 Q1008 N (10°) 5.8mph 18°C 8°C
19/06/19 18:20 EGNR 191720Z 34005KT 9999 FEW036 BKN048 17/08 Q1009 NNW (340°) 5.8mph 17°C 8°C
19/06/19 17:20 EGNR 191620Z 33008KT 9999 FEW023 BKN048 17/09 Q1009 NNW (330°) 9.2mph 17°C 9°C
19/06/19 16:50 EGNR 191550Z 33009KT 9999 FEW023 BKN048 16/09 Q1009 NNW (330°) 10.4mph 16°C 9°C
19/06/19 15:50 EGNR 191450Z 33007KT 300V010 9999 FEW028 BKN048 17/11 Q1009 NNW (330°) 8.1mph 17°C 11°C
19/06/19 15:20 EGNR 191420Z 34009KT 9999 FEW028 BKN048 16/11 Q1009 NNW (340°) 10.4mph 16°C 11°C
19/06/19 14:50 EGNR 191350Z 33007KT 9999 FEW028 BKN048 15/11 Q1009 NNW (330°) 8.1mph 15°C 11°C
19/06/19 13:50 EGNR 191250Z 32007KT 9999 SCT025 16/12 Q1009 NW (320°) 8.1mph 16°C 12°C
19/06/19 13:20 EGNR 191220Z 32008KT 9999 SCT025 16/13 Q1009 NW (320°) 9.2mph 16°C 13°C
19/06/19 12:50 EGNR 191150Z 32009KT 9999 SCT025 16/12 Q1009 NW (320°) 10.4mph 16°C 12°C
19/06/19 12:20 EGNR 191120Z 32007KT 9999 SCT025 17/11 Q1009 NW (320°) 8.1mph 17°C 11°C
19/06/19 11:50 EGNR 191050Z 34005KT 280V020 9999 SCT025 17/12 Q1009 NNW (340°) 5.8mph 17°C 12°C
19/06/19 11:20 EGNR 191020Z 36006KT 320V030 9999 FEW016 SCT025 17/11 Q1009 N (360°) 6.9mph 17°C 11°C
19/06/19 10:50 EGNR 190950Z VRB03KT 9999 FEW016 SCT025 17/11 Q1009 N (0°) 3.5mph 17°C 11°C
19/06/19 10:20 EGNR 190920Z VRB02KT 9999 FEW016 SCT025 16/11 Q1009 N (0°) 2.3mph 16°C 11°C
19/06/19 09:50 EGNR 190850Z 33004KT 280V360 9999 FEW016 15/11 Q1009 NNW (330°) 4.6mph 15°C 11°C
19/06/19 09:20 EGNR 190820Z 33004KT 9999 FEW015 15/11 Q1009 NNW (330°) 4.6mph 15°C 11°C
19/06/19 08:50 EGNR 190750Z VRB03KT 9999 FEW015 15/12 Q1009 N (0°) 3.5mph 15°C 12°C
19/06/19 08:20 EGNR 190720Z VRB02KT 9999 FEW010 SCT040 14/11 Q1009 N (0°) 2.3mph 14°C 11°C
19/06/19 07:50 EGNR 190650Z 36004KT 9999 FEW016 SCT040 14/11 Q1009 N (360°) 4.6mph 14°C 11°C
19/06/19 07:20 EGNR 190620Z 33004KT 8000 SCT016 13/12 Q1009 NNW (330°) 4.6mph 13°C 12°C
19/06/19 06:50 EGNR 190550Z 33003KT 8000 FEW014 13/11 Q1009 NNW (330°) 3.5mph 13°C 11°C
19/06/19 06:20 EGNR 190520Z 31002KT 9999 FEW014 12/11 Q1009 NW (310°) 2.3mph 12°C 11°C
18/06/19 20:50 EGNR 181950Z 28004KT 240V320 7000 RA SCT025 BKN036 13/12 Q1012 RA W (280°) 4.6mph 13°C 12°C